<?xml version="1.0" encoding="UTF-8" standalone="no" ?>
<gpx xmlns="http://www.topografix.com/GPX/1/1" xmlns:xsi="http://www.w3.org/2001/XMLSchema-instance" xsi:schemaLocation="http://www.topografix.com/GPX/1/1 http://www.topografix.com/GPX/1/1/gpx.xsd" version="1.1" creator="VisuGPX - https://www.visugpx.com">
  <metadata>
    <name>Gare - Gare Maritime</name>
  </metadata>
  <wpt lat="47.75455" lon="-3.36669">
    <ele>16</ele>
    <name><![CDATA[Point de passage 1]]></name>
    <type><![CDATA[GENERIC]]></type>
  </wpt>
  <wpt lat="47.74163" lon="-3.35346">
    <ele>4</ele>
    <name><![CDATA[Point de passage 2]]></name>
    <type><![CDATA[GENERIC]]></type>
  </wpt>
  <trk>
    <name><![CDATA[Gare - Gare Maritime]]></name>
    <trkseg>
      <trkpt lat="47.75455" lon="-3.36669">
        <ele>16</ele>
        <time>2025-07-14T15:26:10.000Z</time>
      </trkpt>
      <trkpt lat="47.7547" lon="-3.36673">
        <ele>16</ele>
        <time>2025-07-14T15:26:27.000Z</time>
      </trkpt>
      <trkpt lat="47.7547" lon="-3.36671">
        <ele>16</ele>
        <time>2025-07-14T15:26:28.000Z</time>
      </trkpt>
      <trkpt lat="47.75472" lon="-3.36665">
        <ele>15</ele>
        <time>2025-07-14T15:26:33.000Z</time>
      </trkpt>
      <trkpt lat="47.75476" lon="-3.36654">
        <ele>15</ele>
        <time>2025-07-14T15:26:43.000Z</time>
      </trkpt>
      <trkpt lat="47.75482" lon="-3.36656">
        <ele>15</ele>
        <time>2025-07-14T15:26:50.000Z</time>
      </trkpt>
      <trkpt lat="47.75491" lon="-3.36658">
        <ele>15</ele>
        <time>2025-07-14T15:27:00.000Z</time>
      </trkpt>
      <trkpt lat="47.75493" lon="-3.36644">
        <ele>15</ele>
        <time>2025-07-14T15:27:11.000Z</time>
      </trkpt>
      <trkpt lat="47.75497" lon="-3.36646">
        <ele>16</ele>
        <time>2025-07-14T15:27:26.000Z</time>
      </trkpt>
      <trkpt lat="47.75498" lon="-3.36641">
        <ele>16</ele>
        <time>2025-07-14T15:27:30.000Z</time>
      </trkpt>
      <trkpt lat="47.75498" lon="-3.36638">
        <ele>16</ele>
        <time>2025-07-14T15:27:32.000Z</time>
      </trkpt>
      <trkpt lat="47.75501" lon="-3.36619">
        <ele>16</ele>
        <time>2025-07-14T15:27:47.000Z</time>
      </trkpt>
      <trkpt lat="47.75504" lon="-3.36601">
        <ele>16</ele>
        <time>2025-07-14T15:28:01.000Z</time>
      </trkpt>
      <trkpt lat="47.75507" lon="-3.36583">
        <ele>16</ele>
        <time>2025-07-14T15:28:15.000Z</time>
      </trkpt>
      <trkpt lat="47.75512" lon="-3.36563">
        <ele>15</ele>
        <time>2025-07-14T15:28:31.000Z</time>
      </trkpt>
      <trkpt lat="47.75516" lon="-3.36547">
        <ele>15</ele>
        <time>2025-07-14T15:28:44.000Z</time>
      </trkpt>
      <trkpt lat="47.75521" lon="-3.36529">
        <ele>15</ele>
        <time>2025-07-14T15:29:00.000Z</time>
      </trkpt>
      <trkpt lat="47.75527" lon="-3.36506">
        <ele>15</ele>
        <time>2025-07-14T15:29:19.000Z</time>
      </trkpt>
      <trkpt lat="47.75532" lon="-3.36491">
        <ele>15</ele>
        <time>2025-07-14T15:29:32.000Z</time>
      </trkpt>
      <trkpt lat="47.75534" lon="-3.36484">
        <ele>16</ele>
        <time>2025-07-14T15:29:48.000Z</time>
      </trkpt>
      <trkpt lat="47.75535" lon="-3.3648">
        <ele>16</ele>
        <time>2025-07-14T15:29:51.000Z</time>
      </trkpt>
      <trkpt lat="47.75536" lon="-3.36473">
        <ele>16</ele>
        <time>2025-07-14T15:29:57.000Z</time>
      </trkpt>
      <trkpt lat="47.75546" lon="-3.36429">
        <ele>15</ele>
        <time>2025-07-14T15:30:33.000Z</time>
      </trkpt>
      <trkpt lat="47.75545" lon="-3.36428">
        <ele>15</ele>
        <time>2025-07-14T15:30:35.000Z</time>
      </trkpt>
      <trkpt lat="47.75545" lon="-3.36428">
        <ele>15</ele>
        <time>2025-07-14T15:30:36.000Z</time>
      </trkpt>
      <trkpt lat="47.75547" lon="-3.36416">
        <ele>15</ele>
        <time>2025-07-14T15:30:46.000Z</time>
      </trkpt>
      <trkpt lat="47.75551" lon="-3.364">
        <ele>16</ele>
        <time>2025-07-14T15:31:09.000Z</time>
      </trkpt>
      <trkpt lat="47.75554" lon="-3.36389">
        <ele>16</ele>
        <time>2025-07-14T15:31:18.000Z</time>
      </trkpt>
      <trkpt lat="47.7555" lon="-3.36387">
        <ele>16</ele>
        <time>2025-07-14T15:31:22.000Z</time>
      </trkpt>
      <trkpt lat="47.75546" lon="-3.36385">
        <ele>15</ele>
        <time>2025-07-14T15:31:27.000Z</time>
      </trkpt>
      <trkpt lat="47.75541" lon="-3.36381">
        <ele>15</ele>
        <time>2025-07-14T15:31:34.000Z</time>
      </trkpt>
      <trkpt lat="47.75537" lon="-3.36379">
        <ele>15</ele>
        <time>2025-07-14T15:31:39.000Z</time>
      </trkpt>
      <trkpt lat="47.75541" lon="-3.36368">
        <ele>15</ele>
        <time>2025-07-14T15:31:49.000Z</time>
      </trkpt>
      <trkpt lat="47.75543" lon="-3.36358">
        <ele>15</ele>
        <time>2025-07-14T15:31:57.000Z</time>
      </trkpt>
      <trkpt lat="47.75546" lon="-3.36349">
        <ele>15</ele>
        <time>2025-07-14T15:32:05.000Z</time>
      </trkpt>
      <trkpt lat="47.75549" lon="-3.3634">
        <ele>15</ele>
        <time>2025-07-14T15:32:12.000Z</time>
      </trkpt>
      <trkpt lat="47.7555" lon="-3.36337">
        <ele>15</ele>
        <time>2025-07-14T15:32:15.000Z</time>
      </trkpt>
      <trkpt lat="47.75552" lon="-3.36336">
        <ele>15</ele>
        <time>2025-07-14T15:32:17.000Z</time>
      </trkpt>
      <trkpt lat="47.75554" lon="-3.36333">
        <ele>15</ele>
        <time>2025-07-14T15:32:20.000Z</time>
      </trkpt>
      <trkpt lat="47.75557" lon="-3.3631">
        <ele>15</ele>
        <time>2025-07-14T15:32:38.000Z</time>
      </trkpt>
      <trkpt lat="47.75567" lon="-3.36235">
        <ele>14</ele>
        <time>2025-07-14T15:33:37.000Z</time>
      </trkpt>
      <trkpt lat="47.75584" lon="-3.36132">
        <ele>12</ele>
        <time>2025-07-14T15:34:59.000Z</time>
      </trkpt>
      <trkpt lat="47.75589" lon="-3.36094">
        <ele>13</ele>
        <time>2025-07-14T15:35:39.000Z</time>
      </trkpt>
      <trkpt lat="47.75589" lon="-3.36094">
        <ele>13</ele>
        <time>2025-07-14T15:35:39.000Z</time>
      </trkpt>
      <trkpt lat="47.75598" lon="-3.36034">
        <ele>13</ele>
        <time>2025-07-14T15:36:26.000Z</time>
      </trkpt>
      <trkpt lat="47.75619" lon="-3.35882">
        <ele>11</ele>
        <time>2025-07-14T15:38:26.000Z</time>
      </trkpt>
      <trkpt lat="47.75621" lon="-3.35858">
        <ele>11</ele>
        <time>2025-07-14T15:38:45.000Z</time>
      </trkpt>
      <trkpt lat="47.75622" lon="-3.35831">
        <ele>11</ele>
        <time>2025-07-14T15:39:05.000Z</time>
      </trkpt>
      <trkpt lat="47.75621" lon="-3.35804">
        <ele>10</ele>
        <time>2025-07-14T15:39:25.000Z</time>
      </trkpt>
      <trkpt lat="47.75618" lon="-3.35772">
        <ele>10</ele>
        <time>2025-07-14T15:39:50.000Z</time>
      </trkpt>
      <trkpt lat="47.75616" lon="-3.35754">
        <ele>10</ele>
        <time>2025-07-14T15:40:04.000Z</time>
      </trkpt>
      <trkpt lat="47.75614" lon="-3.35745">
        <ele>10</ele>
        <time>2025-07-14T15:40:11.000Z</time>
      </trkpt>
      <trkpt lat="47.75612" lon="-3.35739">
        <ele>10</ele>
        <time>2025-07-14T15:40:17.000Z</time>
      </trkpt>
      <trkpt lat="47.75606" lon="-3.35726">
        <ele>10</ele>
        <time>2025-07-14T15:40:29.000Z</time>
      </trkpt>
      <trkpt lat="47.75616" lon="-3.35719">
        <ele>9</ele>
        <time>2025-07-14T15:40:41.000Z</time>
      </trkpt>
      <trkpt lat="47.75623" lon="-3.35715">
        <ele>10</ele>
        <time>2025-07-14T15:41:00.000Z</time>
      </trkpt>
      <trkpt lat="47.75628" lon="-3.35714">
        <ele>10</ele>
        <time>2025-07-14T15:41:05.000Z</time>
      </trkpt>
      <trkpt lat="47.75637" lon="-3.3571">
        <ele>10</ele>
        <time>2025-07-14T15:41:16.000Z</time>
      </trkpt>
      <trkpt lat="47.75642" lon="-3.35707">
        <ele>10</ele>
        <time>2025-07-14T15:41:23.000Z</time>
      </trkpt>
      <trkpt lat="47.75647" lon="-3.35703">
        <ele>10</ele>
        <time>2025-07-14T15:41:29.000Z</time>
      </trkpt>
      <trkpt lat="47.7565" lon="-3.35699">
        <ele>10</ele>
        <time>2025-07-14T15:41:34.000Z</time>
      </trkpt>
      <trkpt lat="47.75652" lon="-3.35693">
        <ele>10</ele>
        <time>2025-07-14T15:41:40.000Z</time>
      </trkpt>
      <trkpt lat="47.75654" lon="-3.35684">
        <ele>10</ele>
        <time>2025-07-14T15:41:47.000Z</time>
      </trkpt>
      <trkpt lat="47.7566" lon="-3.35639">
        <ele>8</ele>
        <time>2025-07-14T15:42:22.000Z</time>
      </trkpt>
      <trkpt lat="47.75669" lon="-3.35562">
        <ele>6</ele>
        <time>2025-07-14T15:43:22.000Z</time>
      </trkpt>
      <trkpt lat="47.75671" lon="-3.35547">
        <ele>5</ele>
        <time>2025-07-14T15:43:34.000Z</time>
      </trkpt>
      <trkpt lat="47.75673" lon="-3.35537">
        <ele>5</ele>
        <time>2025-07-14T15:43:42.000Z</time>
      </trkpt>
      <trkpt lat="47.75674" lon="-3.35534">
        <ele>5</ele>
        <time>2025-07-14T15:43:44.000Z</time>
      </trkpt>
      <trkpt lat="47.75675" lon="-3.35532">
        <ele>4</ele>
        <time>2025-07-14T15:43:46.000Z</time>
      </trkpt>
      <trkpt lat="47.75676" lon="-3.35531">
        <ele>4</ele>
        <time>2025-07-14T15:43:48.000Z</time>
      </trkpt>
      <trkpt lat="47.75677" lon="-3.3553">
        <ele>5</ele>
        <time>2025-07-14T15:44:00.000Z</time>
      </trkpt>
      <trkpt lat="47.75679" lon="-3.35529">
        <ele>5</ele>
        <time>2025-07-14T15:44:02.000Z</time>
      </trkpt>
      <trkpt lat="47.75679" lon="-3.35527">
        <ele>4</ele>
        <time>2025-07-14T15:44:04.000Z</time>
      </trkpt>
      <trkpt lat="47.75682" lon="-3.35527">
        <ele>4</ele>
        <time>2025-07-14T15:44:07.000Z</time>
      </trkpt>
      <trkpt lat="47.75685" lon="-3.35528">
        <ele>5</ele>
        <time>2025-07-14T15:44:21.000Z</time>
      </trkpt>
      <trkpt lat="47.75686" lon="-3.3552">
        <ele>4</ele>
        <time>2025-07-14T15:44:27.000Z</time>
      </trkpt>
      <trkpt lat="47.75689" lon="-3.35505">
        <ele>5</ele>
        <time>2025-07-14T15:44:49.000Z</time>
      </trkpt>
      <trkpt lat="47.75684" lon="-3.35503">
        <ele>5</ele>
        <time>2025-07-14T15:44:55.000Z</time>
      </trkpt>
      <trkpt lat="47.75687" lon="-3.35485">
        <ele>5</ele>
        <time>2025-07-14T15:45:09.000Z</time>
      </trkpt>
      <trkpt lat="47.75689" lon="-3.35472">
        <ele>5</ele>
        <time>2025-07-14T15:45:19.000Z</time>
      </trkpt>
      <trkpt lat="47.75676" lon="-3.35467">
        <ele>5</ele>
        <time>2025-07-14T15:45:34.000Z</time>
      </trkpt>
      <trkpt lat="47.75676" lon="-3.35467">
        <ele>5</ele>
        <time>2025-07-14T15:45:34.000Z</time>
      </trkpt>
      <trkpt lat="47.7567" lon="-3.35465">
        <ele>4</ele>
        <time>2025-07-14T15:45:42.000Z</time>
      </trkpt>
      <trkpt lat="47.7565" lon="-3.35468">
        <ele>4</ele>
        <time>2025-07-14T15:46:05.000Z</time>
      </trkpt>
      <trkpt lat="47.75614" lon="-3.35469">
        <ele>4</ele>
        <time>2025-07-14T15:46:46.000Z</time>
      </trkpt>
      <trkpt lat="47.75603" lon="-3.35467">
        <ele>4</ele>
        <time>2025-07-14T15:46:59.000Z</time>
      </trkpt>
      <trkpt lat="47.75586" lon="-3.35463">
        <ele>4</ele>
        <time>2025-07-14T15:47:18.000Z</time>
      </trkpt>
      <trkpt lat="47.75578" lon="-3.35472">
        <ele>5</ele>
        <time>2025-07-14T15:47:40.000Z</time>
      </trkpt>
      <trkpt lat="47.75573" lon="-3.35467">
        <ele>5</ele>
        <time>2025-07-14T15:47:47.000Z</time>
      </trkpt>
      <trkpt lat="47.75562" lon="-3.35462">
        <ele>5</ele>
        <time>2025-07-14T15:48:00.000Z</time>
      </trkpt>
      <trkpt lat="47.75553" lon="-3.35457">
        <ele>5</ele>
        <time>2025-07-14T15:48:11.000Z</time>
      </trkpt>
      <trkpt lat="47.75533" lon="-3.35445">
        <ele>5</ele>
        <time>2025-07-14T15:48:36.000Z</time>
      </trkpt>
      <trkpt lat="47.75498" lon="-3.35416">
        <ele>4</ele>
        <time>2025-07-14T15:49:22.000Z</time>
      </trkpt>
      <trkpt lat="47.75481" lon="-3.35397">
        <ele>4</ele>
        <time>2025-07-14T15:49:46.000Z</time>
      </trkpt>
      <trkpt lat="47.75466" lon="-3.35392">
        <ele>4</ele>
        <time>2025-07-14T15:50:04.000Z</time>
      </trkpt>
      <trkpt lat="47.75443" lon="-3.35374">
        <ele>4</ele>
        <time>2025-07-14T15:50:33.000Z</time>
      </trkpt>
      <trkpt lat="47.75431" lon="-3.35362">
        <ele>4</ele>
        <time>2025-07-14T15:50:50.000Z</time>
      </trkpt>
      <trkpt lat="47.75404" lon="-3.35329">
        <ele>3</ele>
        <time>2025-07-14T15:51:29.000Z</time>
      </trkpt>
      <trkpt lat="47.75364" lon="-3.35312">
        <ele>4</ele>
        <time>2025-07-14T15:52:27.000Z</time>
      </trkpt>
      <trkpt lat="47.7535" lon="-3.35302">
        <ele>4</ele>
        <time>2025-07-14T15:52:45.000Z</time>
      </trkpt>
      <trkpt lat="47.7535" lon="-3.35302">
        <ele>4</ele>
        <time>2025-07-14T15:52:45.000Z</time>
      </trkpt>
      <trkpt lat="47.75341" lon="-3.35297">
        <ele>4</ele>
        <time>2025-07-14T15:52:56.000Z</time>
      </trkpt>
      <trkpt lat="47.7533" lon="-3.35328">
        <ele>4</ele>
        <time>2025-07-14T15:53:23.000Z</time>
      </trkpt>
      <trkpt lat="47.75323" lon="-3.35365">
        <ele>4</ele>
        <time>2025-07-14T15:53:52.000Z</time>
      </trkpt>
      <trkpt lat="47.75302" lon="-3.35417">
        <ele>4</ele>
        <time>2025-07-14T15:54:39.000Z</time>
      </trkpt>
      <trkpt lat="47.75262" lon="-3.3553">
        <ele>6</ele>
        <time>2025-07-14T15:56:38.000Z</time>
      </trkpt>
      <trkpt lat="47.75257" lon="-3.35545">
        <ele>6</ele>
        <time>2025-07-14T15:56:50.000Z</time>
      </trkpt>
      <trkpt lat="47.75243" lon="-3.35585">
        <ele>6</ele>
        <time>2025-07-14T15:57:26.000Z</time>
      </trkpt>
      <trkpt lat="47.75228" lon="-3.35628">
        <ele>6</ele>
        <time>2025-07-14T15:58:03.000Z</time>
      </trkpt>
      <trkpt lat="47.75224" lon="-3.3564">
        <ele>6</ele>
        <time>2025-07-14T15:58:13.000Z</time>
      </trkpt>
      <trkpt lat="47.75221" lon="-3.35647">
        <ele>6</ele>
        <time>2025-07-14T15:58:19.000Z</time>
      </trkpt>
      <trkpt lat="47.75213" lon="-3.35669">
        <ele>6</ele>
        <time>2025-07-14T15:58:38.000Z</time>
      </trkpt>
      <trkpt lat="47.7521" lon="-3.35679">
        <ele>6</ele>
        <time>2025-07-14T15:58:47.000Z</time>
      </trkpt>
      <trkpt lat="47.75204" lon="-3.35695">
        <ele>6</ele>
        <time>2025-07-14T15:59:01.000Z</time>
      </trkpt>
      <trkpt lat="47.75199" lon="-3.35711">
        <ele>6</ele>
        <time>2025-07-14T15:59:15.000Z</time>
      </trkpt>
      <trkpt lat="47.75193" lon="-3.35702">
        <ele>6</ele>
        <time>2025-07-14T15:59:24.000Z</time>
      </trkpt>
      <trkpt lat="47.75193" lon="-3.35702">
        <ele>6</ele>
        <time>2025-07-14T15:59:24.000Z</time>
      </trkpt>
      <trkpt lat="47.75199" lon="-3.35711">
        <ele>6</ele>
        <time>2025-07-14T15:59:33.000Z</time>
      </trkpt>
      <trkpt lat="47.75187" lon="-3.35743">
        <ele>6</ele>
        <time>2025-07-14T16:00:01.000Z</time>
      </trkpt>
      <trkpt lat="47.75175" lon="-3.35777">
        <ele>6</ele>
        <time>2025-07-14T16:00:30.000Z</time>
      </trkpt>
      <trkpt lat="47.75162" lon="-3.35784">
        <ele>5</ele>
        <time>2025-07-14T16:00:47.000Z</time>
      </trkpt>
      <trkpt lat="47.75121" lon="-3.35802">
        <ele>5</ele>
        <time>2025-07-14T16:01:36.000Z</time>
      </trkpt>
      <trkpt lat="47.75116" lon="-3.35805">
        <ele>5</ele>
        <time>2025-07-14T16:01:42.000Z</time>
      </trkpt>
      <trkpt lat="47.75118" lon="-3.35835">
        <ele>5</ele>
        <time>2025-07-14T16:02:06.000Z</time>
      </trkpt>
      <trkpt lat="47.7512" lon="-3.35865">
        <ele>5</ele>
        <time>2025-07-14T16:02:29.000Z</time>
      </trkpt>
      <trkpt lat="47.7512" lon="-3.35865">
        <ele>5</ele>
        <time>2025-07-14T16:02:29.000Z</time>
      </trkpt>
      <trkpt lat="47.75114" lon="-3.3586">
        <ele>5</ele>
        <time>2025-07-14T16:02:37.000Z</time>
      </trkpt>
      <trkpt lat="47.75055" lon="-3.3582">
        <ele>5</ele>
        <time>2025-07-14T16:03:51.000Z</time>
      </trkpt>
      <trkpt lat="47.75049" lon="-3.35816">
        <ele>5</ele>
        <time>2025-07-14T16:03:58.000Z</time>
      </trkpt>
      <trkpt lat="47.75045" lon="-3.35813">
        <ele>5</ele>
        <time>2025-07-14T16:04:03.000Z</time>
      </trkpt>
      <trkpt lat="47.75011" lon="-3.3579">
        <ele>5</ele>
        <time>2025-07-14T16:04:45.000Z</time>
      </trkpt>
      <trkpt lat="47.75009" lon="-3.35789">
        <ele>5</ele>
        <time>2025-07-14T16:04:48.000Z</time>
      </trkpt>
      <trkpt lat="47.74988" lon="-3.35775">
        <ele>6</ele>
        <time>2025-07-14T16:05:24.000Z</time>
      </trkpt>
      <trkpt lat="47.74976" lon="-3.35767">
        <ele>6</ele>
        <time>2025-07-14T16:05:39.000Z</time>
      </trkpt>
      <trkpt lat="47.74975" lon="-3.35766">
        <ele>6</ele>
        <time>2025-07-14T16:05:41.000Z</time>
      </trkpt>
      <trkpt lat="47.74945" lon="-3.35746">
        <ele>6</ele>
        <time>2025-07-14T16:06:19.000Z</time>
      </trkpt>
      <trkpt lat="47.74942" lon="-3.35744">
        <ele>6</ele>
        <time>2025-07-14T16:06:22.000Z</time>
      </trkpt>
      <trkpt lat="47.7491" lon="-3.35722">
        <ele>7</ele>
        <time>2025-07-14T16:07:13.000Z</time>
      </trkpt>
      <trkpt lat="47.74897" lon="-3.35714">
        <ele>8</ele>
        <time>2025-07-14T16:07:40.000Z</time>
      </trkpt>
      <trkpt lat="47.74897" lon="-3.35714">
        <ele>8</ele>
        <time>2025-07-14T16:07:40.000Z</time>
      </trkpt>
      <trkpt lat="47.74824" lon="-3.35665">
        <ele>11</ele>
        <time>2025-07-14T16:09:42.000Z</time>
      </trkpt>
      <trkpt lat="47.74797" lon="-3.35647">
        <ele>11</ele>
        <time>2025-07-14T16:10:16.000Z</time>
      </trkpt>
      <trkpt lat="47.74759" lon="-3.35622">
        <ele>12</ele>
        <time>2025-07-14T16:11:14.000Z</time>
      </trkpt>
      <trkpt lat="47.74732" lon="-3.35604">
        <ele>13</ele>
        <time>2025-07-14T16:11:58.000Z</time>
      </trkpt>
      <trkpt lat="47.74703" lon="-3.35586">
        <ele>14</ele>
        <time>2025-07-14T16:12:44.000Z</time>
      </trkpt>
      <trkpt lat="47.747" lon="-3.35585">
        <ele>14</ele>
        <time>2025-07-14T16:12:48.000Z</time>
      </trkpt>
      <trkpt lat="47.747" lon="-3.35585">
        <ele>14</ele>
        <time>2025-07-14T16:12:48.000Z</time>
      </trkpt>
      <trkpt lat="47.74689" lon="-3.35584">
        <ele>14</ele>
        <time>2025-07-14T16:13:01.000Z</time>
      </trkpt>
      <trkpt lat="47.74684" lon="-3.35584">
        <ele>14</ele>
        <time>2025-07-14T16:13:06.000Z</time>
      </trkpt>
      <trkpt lat="47.74678" lon="-3.35585">
        <ele>14</ele>
        <time>2025-07-14T16:13:14.000Z</time>
      </trkpt>
      <trkpt lat="47.74669" lon="-3.35588">
        <ele>14</ele>
        <time>2025-07-14T16:13:24.000Z</time>
      </trkpt>
      <trkpt lat="47.74657" lon="-3.35602">
        <ele>14</ele>
        <time>2025-07-14T16:13:42.000Z</time>
      </trkpt>
      <trkpt lat="47.7465" lon="-3.35617">
        <ele>14</ele>
        <time>2025-07-14T16:13:56.000Z</time>
      </trkpt>
      <trkpt lat="47.74643" lon="-3.35628">
        <ele>14</ele>
        <time>2025-07-14T16:14:08.000Z</time>
      </trkpt>
      <trkpt lat="47.74639" lon="-3.3564">
        <ele>14</ele>
        <time>2025-07-14T16:14:19.000Z</time>
      </trkpt>
      <trkpt lat="47.74627" lon="-3.35633">
        <ele>14</ele>
        <time>2025-07-14T16:14:34.000Z</time>
      </trkpt>
      <trkpt lat="47.7462" lon="-3.35633">
        <ele>14</ele>
        <time>2025-07-14T16:14:42.000Z</time>
      </trkpt>
      <trkpt lat="47.74613" lon="-3.35633">
        <ele>14</ele>
        <time>2025-07-14T16:14:50.000Z</time>
      </trkpt>
      <trkpt lat="47.74602" lon="-3.35635">
        <ele>14</ele>
        <time>2025-07-14T16:15:02.000Z</time>
      </trkpt>
      <trkpt lat="47.746" lon="-3.35622">
        <ele>14</ele>
        <time>2025-07-14T16:15:12.000Z</time>
      </trkpt>
      <trkpt lat="47.7461" lon="-3.35617">
        <ele>14</ele>
        <time>2025-07-14T16:15:24.000Z</time>
      </trkpt>
      <trkpt lat="47.74613" lon="-3.35613">
        <ele>14</ele>
        <time>2025-07-14T16:15:28.000Z</time>
      </trkpt>
      <trkpt lat="47.74613" lon="-3.35613">
        <ele>14</ele>
        <time>2025-07-14T16:15:28.000Z</time>
      </trkpt>
      <trkpt lat="47.7461" lon="-3.35617">
        <ele>14</ele>
        <time>2025-07-14T16:15:32.000Z</time>
      </trkpt>
      <trkpt lat="47.746" lon="-3.35622">
        <ele>14</ele>
        <time>2025-07-14T16:15:44.000Z</time>
      </trkpt>
      <trkpt lat="47.74597" lon="-3.35602">
        <ele>14</ele>
        <time>2025-07-14T16:16:00.000Z</time>
      </trkpt>
      <trkpt lat="47.74596" lon="-3.35595">
        <ele>14</ele>
        <time>2025-07-14T16:16:05.000Z</time>
      </trkpt>
      <trkpt lat="47.74595" lon="-3.35577">
        <ele>13</ele>
        <time>2025-07-14T16:16:19.000Z</time>
      </trkpt>
      <trkpt lat="47.74594" lon="-3.35559">
        <ele>13</ele>
        <time>2025-07-14T16:16:33.000Z</time>
      </trkpt>
      <trkpt lat="47.74592" lon="-3.35526">
        <ele>14</ele>
        <time>2025-07-14T16:17:09.000Z</time>
      </trkpt>
      <trkpt lat="47.74589" lon="-3.35476">
        <ele>13</ele>
        <time>2025-07-14T16:17:48.000Z</time>
      </trkpt>
      <trkpt lat="47.74588" lon="-3.3546">
        <ele>13</ele>
        <time>2025-07-14T16:18:00.000Z</time>
      </trkpt>
      <trkpt lat="47.74565" lon="-3.35452">
        <ele>13</ele>
        <time>2025-07-14T16:18:28.000Z</time>
      </trkpt>
      <trkpt lat="47.74541" lon="-3.35437">
        <ele>14</ele>
        <time>2025-07-14T16:19:08.000Z</time>
      </trkpt>
      <trkpt lat="47.74538" lon="-3.35424">
        <ele>15</ele>
        <time>2025-07-14T16:19:28.000Z</time>
      </trkpt>
      <trkpt lat="47.74538" lon="-3.35417">
        <ele>16</ele>
        <time>2025-07-14T16:19:44.000Z</time>
      </trkpt>
      <trkpt lat="47.74542" lon="-3.35413">
        <ele>16</ele>
        <time>2025-07-14T16:19:49.000Z</time>
      </trkpt>
      <trkpt lat="47.74543" lon="-3.3541">
        <ele>17</ele>
        <time>2025-07-14T16:20:02.000Z</time>
      </trkpt>
      <trkpt lat="47.74546" lon="-3.35402">
        <ele>16</ele>
        <time>2025-07-14T16:20:09.000Z</time>
      </trkpt>
      <trkpt lat="47.74549" lon="-3.35394">
        <ele>18</ele>
        <time>2025-07-14T16:20:36.000Z</time>
      </trkpt>
      <trkpt lat="47.7455" lon="-3.35389">
        <ele>18</ele>
        <time>2025-07-14T16:20:41.000Z</time>
      </trkpt>
      <trkpt lat="47.74543" lon="-3.35379">
        <ele>19</ele>
        <time>2025-07-14T16:21:02.000Z</time>
      </trkpt>
      <trkpt lat="47.74534" lon="-3.35361">
        <ele>21</ele>
        <time>2025-07-14T16:21:40.000Z</time>
      </trkpt>
      <trkpt lat="47.74531" lon="-3.35348">
        <ele>22</ele>
        <time>2025-07-14T16:22:01.000Z</time>
      </trkpt>
      <trkpt lat="47.74535" lon="-3.35338">
        <ele>22</ele>
        <time>2025-07-14T16:22:09.000Z</time>
      </trkpt>
      <trkpt lat="47.74539" lon="-3.35325">
        <ele>22</ele>
        <time>2025-07-14T16:22:20.000Z</time>
      </trkpt>
      <trkpt lat="47.74539" lon="-3.35318">
        <ele>22</ele>
        <time>2025-07-14T16:22:25.000Z</time>
      </trkpt>
      <trkpt lat="47.74538" lon="-3.3531">
        <ele>21</ele>
        <time>2025-07-14T16:22:31.000Z</time>
      </trkpt>
      <trkpt lat="47.74535" lon="-3.35303">
        <ele>21</ele>
        <time>2025-07-14T16:22:37.000Z</time>
      </trkpt>
      <trkpt lat="47.74533" lon="-3.35301">
        <ele>21</ele>
        <time>2025-07-14T16:22:40.000Z</time>
      </trkpt>
      <trkpt lat="47.74535" lon="-3.35303">
        <ele>21</ele>
        <time>2025-07-14T16:22:43.000Z</time>
      </trkpt>
      <trkpt lat="47.74531" lon="-3.35299">
        <ele>20</ele>
        <time>2025-07-14T16:22:49.000Z</time>
      </trkpt>
      <trkpt lat="47.74526" lon="-3.35295">
        <ele>20</ele>
        <time>2025-07-14T16:22:55.000Z</time>
      </trkpt>
      <trkpt lat="47.74524" lon="-3.35296">
        <ele>20</ele>
        <time>2025-07-14T16:22:58.000Z</time>
      </trkpt>
      <trkpt lat="47.7452" lon="-3.35298">
        <ele>20</ele>
        <time>2025-07-14T16:23:02.000Z</time>
      </trkpt>
      <trkpt lat="47.74515" lon="-3.35304">
        <ele>19</ele>
        <time>2025-07-14T16:23:10.000Z</time>
      </trkpt>
      <trkpt lat="47.74506" lon="-3.35325">
        <ele>15</ele>
        <time>2025-07-14T16:23:29.000Z</time>
      </trkpt>
      <trkpt lat="47.74501" lon="-3.35345">
        <ele>13</ele>
        <time>2025-07-14T16:23:45.000Z</time>
      </trkpt>
      <trkpt lat="47.74502" lon="-3.3536">
        <ele>13</ele>
        <time>2025-07-14T16:23:57.000Z</time>
      </trkpt>
      <trkpt lat="47.74505" lon="-3.35367">
        <ele>14</ele>
        <time>2025-07-14T16:24:14.000Z</time>
      </trkpt>
      <trkpt lat="47.74497" lon="-3.35371">
        <ele>13</ele>
        <time>2025-07-14T16:24:23.000Z</time>
      </trkpt>
      <trkpt lat="47.74494" lon="-3.35343">
        <ele>11</ele>
        <time>2025-07-14T16:24:45.000Z</time>
      </trkpt>
      <trkpt lat="47.74496" lon="-3.35314">
        <ele>9</ele>
        <time>2025-07-14T16:25:07.000Z</time>
      </trkpt>
      <trkpt lat="47.74509" lon="-3.35263">
        <ele>6</ele>
        <time>2025-07-14T16:25:49.000Z</time>
      </trkpt>
      <trkpt lat="47.74511" lon="-3.35255">
        <ele>6</ele>
        <time>2025-07-14T16:25:56.000Z</time>
      </trkpt>
      <trkpt lat="47.74513" lon="-3.35251">
        <ele>6</ele>
        <time>2025-07-14T16:26:00.000Z</time>
      </trkpt>
      <trkpt lat="47.74516" lon="-3.35247">
        <ele>6</ele>
        <time>2025-07-14T16:26:05.000Z</time>
      </trkpt>
      <trkpt lat="47.74523" lon="-3.35227">
        <ele>6</ele>
        <time>2025-07-14T16:26:22.000Z</time>
      </trkpt>
      <trkpt lat="47.74542" lon="-3.35157">
        <ele>5</ele>
        <time>2025-07-14T16:27:20.000Z</time>
      </trkpt>
      <trkpt lat="47.74542" lon="-3.35157">
        <ele>5</ele>
        <time>2025-07-14T16:27:20.000Z</time>
      </trkpt>
      <trkpt lat="47.74544" lon="-3.35149">
        <ele>5</ele>
        <time>2025-07-14T16:27:27.000Z</time>
      </trkpt>
      <trkpt lat="47.74524" lon="-3.35114">
        <ele>5</ele>
        <time>2025-07-14T16:28:02.000Z</time>
      </trkpt>
      <trkpt lat="47.74519" lon="-3.35111">
        <ele>5</ele>
        <time>2025-07-14T16:28:08.000Z</time>
      </trkpt>
      <trkpt lat="47.74493" lon="-3.35099">
        <ele>5</ele>
        <time>2025-07-14T16:28:39.000Z</time>
      </trkpt>
      <trkpt lat="47.74493" lon="-3.35099">
        <ele>5</ele>
        <time>2025-07-14T16:28:39.000Z</time>
      </trkpt>
      <trkpt lat="47.74484" lon="-3.35095">
        <ele>5</ele>
        <time>2025-07-14T16:28:50.000Z</time>
      </trkpt>
      <trkpt lat="47.74457" lon="-3.35184">
        <ele>6</ele>
        <time>2025-07-14T16:30:16.000Z</time>
      </trkpt>
      <trkpt lat="47.74426" lon="-3.35163">
        <ele>6</ele>
        <time>2025-07-14T16:30:55.000Z</time>
      </trkpt>
      <trkpt lat="47.74448" lon="-3.3509">
        <ele>5</ele>
        <time>2025-07-14T16:31:57.000Z</time>
      </trkpt>
      <trkpt lat="47.74447" lon="-3.35085">
        <ele>5</ele>
        <time>2025-07-14T16:32:01.000Z</time>
      </trkpt>
      <trkpt lat="47.74447" lon="-3.35085">
        <ele>5</ele>
        <time>2025-07-14T16:32:01.000Z</time>
      </trkpt>
      <trkpt lat="47.74447" lon="-3.35085">
        <ele>5</ele>
        <time>2025-07-14T16:32:01.000Z</time>
      </trkpt>
      <trkpt lat="47.74413" lon="-3.35041">
        <ele>5</ele>
        <time>2025-07-14T16:32:53.000Z</time>
      </trkpt>
      <trkpt lat="47.74392" lon="-3.35076">
        <ele>5</ele>
        <time>2025-07-14T16:33:29.000Z</time>
      </trkpt>
      <trkpt lat="47.74377" lon="-3.35139">
        <ele>5</ele>
        <time>2025-07-14T16:34:20.000Z</time>
      </trkpt>
      <trkpt lat="47.7436" lon="-3.35219">
        <ele>5</ele>
        <time>2025-07-14T16:35:25.000Z</time>
      </trkpt>
      <trkpt lat="47.74375" lon="-3.35276">
        <ele>5</ele>
        <time>2025-07-14T16:36:12.000Z</time>
      </trkpt>
      <trkpt lat="47.74376" lon="-3.35345">
        <ele>4</ele>
        <time>2025-07-14T16:37:05.000Z</time>
      </trkpt>
      <trkpt lat="47.74409" lon="-3.354">
        <ele>4</ele>
        <time>2025-07-14T16:38:01.000Z</time>
      </trkpt>
      <trkpt lat="47.74414" lon="-3.35492">
        <ele>4</ele>
        <time>2025-07-14T16:39:13.000Z</time>
      </trkpt>
      <trkpt lat="47.74423" lon="-3.35574">
        <ele>4</ele>
        <time>2025-07-14T16:40:17.000Z</time>
      </trkpt>
      <trkpt lat="47.74438" lon="-3.35644">
        <ele>4</ele>
        <time>2025-07-14T16:41:13.000Z</time>
      </trkpt>
      <trkpt lat="47.74517" lon="-3.35852">
        <ele>4</ele>
        <time>2025-07-14T16:44:17.000Z</time>
      </trkpt>
      <trkpt lat="47.74448" lon="-3.35938">
        <ele>2</ele>
        <time>2025-07-14T16:46:00.000Z</time>
      </trkpt>
      <trkpt lat="47.74413" lon="-3.35947">
        <ele>3</ele>
        <time>2025-07-14T16:46:51.000Z</time>
      </trkpt>
      <trkpt lat="47.74341" lon="-3.35779">
        <ele>4</ele>
        <time>2025-07-14T16:49:35.000Z</time>
      </trkpt>
      <trkpt lat="47.74324" lon="-3.35739">
        <ele>4</ele>
        <time>2025-07-14T16:50:11.000Z</time>
      </trkpt>
      <trkpt lat="47.74259" lon="-3.35396">
        <ele>3</ele>
        <time>2025-07-14T16:54:45.000Z</time>
      </trkpt>
      <trkpt lat="47.74201" lon="-3.35083">
        <ele>3</ele>
        <time>2025-07-14T16:58:55.000Z</time>
      </trkpt>
      <trkpt lat="47.74228" lon="-3.3523">
        <ele>3</ele>
        <time>2025-07-14T17:00:52.000Z</time>
      </trkpt>
      <trkpt lat="47.7419" lon="-3.35285">
        <ele>4</ele>
        <time>2025-07-14T17:02:03.000Z</time>
      </trkpt>
      <trkpt lat="47.74163" lon="-3.35346">
        <ele>4</ele>
        <time>2025-07-14T17:02:59.000Z</time>
      </trkpt>
    </trkseg>
  </trk>
</gpx>